sensor_id;sensor_type;location;lat;lon;timestamp;temperature;humidity
6581;DHT22;3324;50.796;7.228;2022-07-29T00:02:04;19.70;99.90
6581;DHT22;3324;50.796;7.228;2022-07-29T00:04:30;19.70;99.90
6581;DHT22;3324;50.796;7.228;2022-07-29T00:06:55;19.70;99.90
6581;DHT22;3324;50.796;7.228;2022-07-29T00:09:21;19.70;99.90
6581;DHT22;3324;50.796;7.228;2022-07-29T00:11:47;19.70;99.90
6581;DHT22;3324;50.796;7.228;2022-07-29T00:14:13;19.70;99.90
6581;DHT22;3324;50.796;7.228;2022-07-29T00:16:38;19.70;99.90
6581;DHT22;3324;50.796;7.228;2022-07-29T00:19:04;19.70;99.90
6581;DHT22;3324;50.796;7.228;2022-07-29T00:21:30;19.60;99.90
6581;DHT22;3324;50.796;7.228;2022-07-29T00:23:55;19.60;99.90
6581;DHT22;3324;50.796;7.228;2022-07-29T00:26:21;19.50;99.90
6581;DHT22;3324;50.796;7.228;2022-07-29T00:28:47;19.50;99.90
6581;DHT22;3324;50.796;7.228;2022-07-29T00:31:12;19.50;99.90
6581;DHT22;3324;50.796;7.228;2022-07-29T00:33:38;19.50;99.90
6581;DHT22;3324;50.796;7.228;2022-07-29T00:36:04;19.50;99.90
6581;DHT22;3324;50.796;7.228;2022-07-29T00:38:29;19.60;99.90
6581;DHT22;3324;50.796;7.228;2022-07-29T00:40:55;19.50;99.90
6581;DHT22;3324;50.796;7.228;2022-07-29T00:43:21;19.50;99.90
6581;DHT22;3324;50.796;7.228;2022-07-29T00:45:47;19.50;99.90
6581;DHT22;3324;50.796;7.228;2022-07-29T00:48:12;19.40;99.90
6581;DHT22;3324;50.796;7.228;2022-07-29T00:50:38;19.40;99.90
6581;DHT22;3324;50.796;7.228;2022-07-29T00:53:06;19.30;99.90
6581;DHT22;3324;50.796;7.228;2022-07-29T00:55:31;19.30;99.90
6581;DHT22;3324;50.796;7.228;2022-07-29T00:57:58;19.40;99.90
6581;DHT22;3324;50.796;7.228;2022-07-29T01:00:25;19.30;99.90
6581;DHT22;3324;50.796;7.228;2022-07-29T01:02:52;19.30;99.90
6581;DHT22;3324;50.796;7.228;2022-07-29T01:05:20;19.20;99.90
6581;DHT22;3324;50.796;7.228;2022-07-29T01:07:48;19.20;99.90
6581;DHT22;3324;50.796;7.228;2022-07-29T01:10:15;19.20;99.90
6581;DHT22;3324;50.796;7.228;2022-07-29T01:12:43;19.10;99.90
6581;DHT22;3324;50.796;7.228;2022-07-29T01:15:10;19.10;99.90
6581;DHT22;3324;50.796;7.228;2022-07-29T01:17:51;19.00;99.90
6581;DHT22;3324;50.796;7.228;2022-07-29T01:30:36;18.80;99.90
6581;DHT22;3324;50.796;7.228;2022-07-29T01:33:09;18.80;99.90
6581;DHT22;3324;50.796;7.228;2022-07-29T01:35:39;18.80;99.90
6581;DHT22;3324;50.796;7.228;2022-07-29T01:38:15;18.70;99.90
6581;DHT22;3324;50.796;7.228;2022-07-29T01:40:43;18.70;99.90
6581;DHT22;3324;50.796;7.228;2022-07-29T01:43:12;18.60;99.90
6581;DHT22;3324;50.796;7.228;2022-07-29T01:45:51;18.70;99.90
6581;DHT22;3324;50.796;7.228;2022-07-29T01:48:22;18.80;99.90
6581;DHT22;3324;50.796;7.228;2022-07-29T01:50:52;18.90;99.90
6581;DHT22;3324;50.796;7.228;2022-07-29T01:53:27;18.90;99.90
6581;DHT22;3324;50.796;7.228;2022-07-29T01:55:54;18.80;99.90
6581;DHT22;3324;50.796;7.228;2022-07-29T01:58:23;18.70;99.90
6581;DHT22;3324;50.796;7.228;2022-07-29T02:00:50;18.60;99.90
6581;DHT22;3324;50.796;7.228;2022-07-29T02:03:17;18.60;99.90
6581;DHT22;3324;50.796;7.228;2022-07-29T02:05:44;18.50;99.90
6581;DHT22;3324;50.796;7.228;2022-07-29T02:08:12;18.50;99.90
6581;DHT22;3324;50.796;7.228;2022-07-29T02:10:40;18.50;99.90
6581;DHT22;3324;50.796;7.228;2022-07-29T02:13:07;18.50;99.90
6581;DHT22;3324;50.796;7.228;2022-07-29T02:15:34;18.50;99.90
6581;DHT22;3324;50.796;7.228;2022-07-29T02:18:11;18.50;99.90
6581;DHT22;3324;50.796;7.228;2022-07-29T02:20:39;18.50;99.90
6581;DHT22;3324;50.796;7.228;2022-07-29T02:23:07;18.50;99.90
6581;DHT22;3324;50.796;7.228;2022-07-29T02:25:36;18.50;99.90
6581;DHT22;3324;50.796;7.228;2022-07-29T02:28:02;18.40;99.90
6581;DHT22;3324;50.796;7.228;2022-07-29T02:30:29;18.50;99.90
6581;DHT22;3324;50.796;7.228;2022-07-29T02:32:56;18.40;99.90
6581;DHT22;3324;50.796;7.228;2022-07-29T02:35:22;18.40;99.90
6581;DHT22;3324;50.796;7.228;2022-07-29T02:37:49;18.40;99.90
6581;DHT22;3324;50.796;7.228;2022-07-29T02:40:38;18.40;99.90
6581;DHT22;3324;50.796;7.228;2022-07-29T02:43:06;18.30;99.90
6581;DHT22;3324;50.796;7.228;2022-07-29T02:45:33;18.20;99.90
6581;DHT22;3324;50.796;7.228;2022-07-29T02:48:01;18.20;99.90
6581;DHT22;3324;50.796;7.228;2022-07-29T02:50:33;18.10;99.90
6581;DHT22;3324;50.796;7.228;2022-07-29T02:53:14;18.00;99.90
6581;DHT22;3324;50.796;7.228;2022-07-29T02:55:50;18.20;99.90
6581;DHT22;3324;50.796;7.228;2022-07-29T02:58:31;18.30;99.90
6581;DHT22;3324;50.796;7.228;2022-07-29T03:01:11;18.30;99.90
6581;DHT22;3324;50.796;7.228;2022-07-29T03:03:39;18.20;99.90
6581;DHT22;3324;50.796;7.228;2022-07-29T03:06:07;18.10;99.90
6581;DHT22;3324;50.796;7.228;2022-07-29T03:08:34;18.10;99.90
6581;DHT22;3324;50.796;7.228;2022-07-29T03:11:00;18.10;99.90
6581;DHT22;3324;50.796;7.228;2022-07-29T03:13:27;18.00;99.90
6581;DHT22;3324;50.796;7.228;2022-07-29T03:15:55;17.90;99.90
6581;DHT22;3324;50.796;7.228;2022-07-29T03:18:21;17.80;99.90
6581;DHT22;3324;50.796;7.228;2022-07-29T03:20:47;17.70;99.90
6581;DHT22;3324;50.796;7.228;2022-07-29T03:23:21;17.70;99.90
6581;DHT22;3324;50.796;7.228;2022-07-29T03:25:49;17.70;99.90
6581;DHT22;3324;50.796;7.228;2022-07-29T03:28:15;17.70;99.90
6581;DHT22;3324;50.796;7.228;2022-07-29T03:30:40;17.70;99.90
6581;DHT22;3324;50.796;7.228;2022-07-29T03:33:06;17.90;99.90
6581;DHT22;3324;50.796;7.228;2022-07-29T03:35:32;18.00;99.90
6581;DHT22;3324;50.796;7.228;2022-07-29T03:37:58;17.90;99.90
6581;DHT22;3324;50.796;7.228;2022-07-29T03:43:03;17.80;99.90
6581;DHT22;3324;50.796;7.228;2022-07-29T03:45:32;17.90;99.90
6581;DHT22;3324;50.796;7.228;2022-07-29T03:48:06;17.80;99.90
6581;DHT22;3324;50.796;7.228;2022-07-29T03:50:33;17.90;99.90
6581;DHT22;3324;50.796;7.228;2022-07-29T03:53:00;17.80;99.90
6581;DHT22;3324;50.796;7.228;2022-07-29T03:55:26;17.90;99.90
6581;DHT22;3324;50.796;7.228;2022-07-29T03:57:54;17.90;99.90
6581;DHT22;3324;50.796;7.228;2022-07-29T04:00:24;17.90;99.90
6581;DHT22;3324;50.796;7.228;2022-07-29T04:02:50;17.80;99.90
6581;DHT22;3324;50.796;7.228;2022-07-29T04:05:17;17.90;99.90
6581;DHT22;3324;50.796;7.228;2022-07-29T04:07:47;17.90;99.90
6581;DHT22;3324;50.796;7.228;2022-07-29T04:10:14;17.80;99.90
6581;DHT22;3324;50.796;7.228;2022-07-29T04:12:44;17.80;99.90
6581;DHT22;3324;50.796;7.228;2022-07-29T04:15:10;17.90;99.90
6581;DHT22;3324;50.796;7.228;2022-07-29T04:17:36;17.90;99.90
6581;DHT22;3324;50.796;7.228;2022-07-29T04:20:01;17.80;99.90
6581;DHT22;3324;50.796;7.228;2022-07-29T04:22:27;17.80;99.90
6581;DHT22;3324;50.796;7.228;2022-07-29T04:24:53;17.80;99.90
6581;DHT22;3324;50.796;7.228;2022-07-29T04:27:18;17.90;99.90
6581;DHT22;3324;50.796;7.228;2022-07-29T04:29:44;17.80;99.90
6581;DHT22;3324;50.796;7.228;2022-07-29T04:32:09;17.90;99.90
6581;DHT22;3324;50.796;7.228;2022-07-29T04:34:35;17.80;99.90
6581;DHT22;3324;50.796;7.228;2022-07-29T04:37:01;17.90;99.90
6581;DHT22;3324;50.796;7.228;2022-07-29T04:39:26;18.00;99.90
6581;DHT22;3324;50.796;7.228;2022-07-29T04:41:52;18.10;99.90
6581;DHT22;3324;50.796;7.228;2022-07-29T04:44:17;18.10;99.90
6581;DHT22;3324;50.796;7.228;2022-07-29T04:46:43;18.20;99.90
6581;DHT22;3324;50.796;7.228;2022-07-29T04:49:09;18.20;99.90
6581;DHT22;3324;50.796;7.228;2022-07-29T04:51:34;18.20;99.90
6581;DHT22;3324;50.796;7.228;2022-07-29T04:54:00;18.20;99.90
6581;DHT22;3324;50.796;7.228;2022-07-29T04:56:26;18.20;99.90
6581;DHT22;3324;50.796;7.228;2022-07-29T04:58:52;18.30;99.90
6581;DHT22;3324;50.796;7.228;2022-07-29T05:01:18;18.20;99.90
6581;DHT22;3324;50.796;7.228;2022-07-29T05:03:44;18.20;99.90
6581;DHT22;3324;50.796;7.228;2022-07-29T05:06:10;18.20;99.90
6581;DHT22;3324;50.796;7.228;2022-07-29T05:08:36;18.30;99.90
6581;DHT22;3324;50.796;7.228;2022-07-29T05:11:02;18.50;99.90
6581;DHT22;3324;50.796;7.228;2022-07-29T05:13:28;18.50;99.90
6581;DHT22;3324;50.796;7.228;2022-07-29T05:15:54;18.60;99.90
6581;DHT22;3324;50.796;7.228;2022-07-29T05:18:19;18.70;99.90
6581;DHT22;3324;50.796;7.228;2022-07-29T05:20:45;18.80;99.90
6581;DHT22;3324;50.796;7.228;2022-07-29T05:23:11;18.90;99.90
6581;DHT22;3324;50.796;7.228;2022-07-29T05:25:38;18.90;99.90
6581;DHT22;3324;50.796;7.228;2022-07-29T05:28:04;18.90;99.90
6581;DHT22;3324;50.796;7.228;2022-07-29T05:30:29;18.90;99.90
6581;DHT22;3324;50.796;7.228;2022-07-29T05:32:55;18.90;99.90
6581;DHT22;3324;50.796;7.228;2022-07-29T05:35:21;18.90;99.90
6581;DHT22;3324;50.796;7.228;2022-07-29T05:37:46;18.90;99.90
6581;DHT22;3324;50.796;7.228;2022-07-29T05:40:12;18.90;99.90
6581;DHT22;3324;50.796;7.228;2022-07-29T05:42:37;18.80;99.90
6581;DHT22;3324;50.796;7.228;2022-07-29T05:45:03;18.90;99.90
6581;DHT22;3324;50.796;7.228;2022-07-29T05:47:30;18.90;99.90
6581;DHT22;3324;50.796;7.228;2022-07-29T05:49:56;18.90;99.90
6581;DHT22;3324;50.796;7.228;2022-07-29T05:52:21;18.90;99.90
6581;DHT22;3324;50.796;7.228;2022-07-29T05:54:47;19.00;99.90
6581;DHT22;3324;50.796;7.228;2022-07-29T05:57:20;19.20;99.90
6581;DHT22;3324;50.796;7.228;2022-07-29T05:59:47;19.40;99.90
6581;DHT22;3324;50.796;7.228;2022-07-29T06:02:13;19.40;99.90
6581;DHT22;3324;50.796;7.228;2022-07-29T06:04:39;19.50;99.90
6581;DHT22;3324;50.796;7.228;2022-07-29T06:07:05;19.50;99.90
6581;DHT22;3324;50.796;7.228;2022-07-29T06:09:31;19.70;99.90
6581;DHT22;3324;50.796;7.228;2022-07-29T06:11:57;19.70;99.90
6581;DHT22;3324;50.796;7.228;2022-07-29T06:14:23;19.70;99.90
6581;DHT22;3324;50.796;7.228;2022-07-29T06:16:49;19.80;99.90
6581;DHT22;3324;50.796;7.228;2022-07-29T06:19:15;19.80;99.90
6581;DHT22;3324;50.796;7.228;2022-07-29T06:21:44;19.80;99.90
6581;DHT22;3324;50.796;7.228;2022-07-29T06:24:14;19.90;99.90
6581;DHT22;3324;50.796;7.228;2022-07-29T06:26:41;19.80;99.90
6581;DHT22;3324;50.796;7.228;2022-07-29T06:29:07;19.80;99.90
6581;DHT22;3324;50.796;7.228;2022-07-29T06:31:33;19.80;99.90
6581;DHT22;3324;50.796;7.228;2022-07-29T06:33:59;19.80;99.90
6581;DHT22;3324;50.796;7.228;2022-07-29T06:36:24;19.80;99.90
6581;DHT22;3324;50.796;7.228;2022-07-29T06:38:50;19.90;99.90
6581;DHT22;3324;50.796;7.228;2022-07-29T06:41:16;19.90;99.90
6581;DHT22;3324;50.796;7.228;2022-07-29T06:43:42;20.00;99.90
6581;DHT22;3324;50.796;7.228;2022-07-29T06:46:11;20.10;99.90
6581;DHT22;3324;50.796;7.228;2022-07-29T06:48:38;20.20;99.90
6581;DHT22;3324;50.796;7.228;2022-07-29T06:51:05;20.30;99.90
6581;DHT22;3324;50.796;7.228;2022-07-29T06:53:31;20.30;99.90
6581;DHT22;3324;50.796;7.228;2022-07-29T06:55:58;20.40;99.90
6581;DHT22;3324;50.796;7.228;2022-07-29T06:58:26;20.50;99.90
6581;DHT22;3324;50.796;7.228;2022-07-29T07:00:51;20.50;99.90
6581;DHT22;3324;50.796;7.228;2022-07-29T07:03:18;20.60;99.90
6581;DHT22;3324;50.796;7.228;2022-07-29T07:05:44;20.60;99.90
6581;DHT22;3324;50.796;7.228;2022-07-29T07:08:11;20.60;99.90
6581;DHT22;3324;50.796;7.228;2022-07-29T07:10:37;20.80;99.90
6581;DHT22;3324;50.796;7.228;2022-07-29T07:13:03;20.80;99.90
6581;DHT22;3324;50.796;7.228;2022-07-29T07:15:29;20.90;99.90
6581;DHT22;3324;50.796;7.228;2022-07-29T07:17:55;21.00;99.90
6581;DHT22;3324;50.796;7.228;2022-07-29T07:20:21;21.10;99.90
6581;DHT22;3324;50.796;7.228;2022-07-29T07:22:47;21.30;99.90
6581;DHT22;3324;50.796;7.228;2022-07-29T07:25:13;21.40;99.90
6581;DHT22;3324;50.796;7.228;2022-07-29T07:27:39;21.40;99.90
6581;DHT22;3324;50.796;7.228;2022-07-29T07:30:07;21.50;99.90
6581;DHT22;3324;50.796;7.228;2022-07-29T07:32:33;21.60;99.90
6581;DHT22;3324;50.796;7.228;2022-07-29T07:34:59;21.70;99.90
6581;DHT22;3324;50.796;7.228;2022-07-29T07:37:25;21.80;99.90
6581;DHT22;3324;50.796;7.228;2022-07-29T07:39:52;21.70;99.90
6581;DHT22;3324;50.796;7.228;2022-07-29T07:42:18;21.80;99.90
6581;DHT22;3324;50.796;7.228;2022-07-29T07:44:44;21.80;99.90
6581;DHT22;3324;50.796;7.228;2022-07-29T07:47:11;21.90;99.90
6581;DHT22;3324;50.796;7.228;2022-07-29T07:49:38;21.90;99.90
6581;DHT22;3324;50.796;7.228;2022-07-29T07:52:04;21.90;99.90
6581;DHT22;3324;50.796;7.228;2022-07-29T07:54:29;22.00;99.90
6581;DHT22;3324;50.796;7.228;2022-07-29T07:56:55;22.20;99.90
6581;DHT22;3324;50.796;7.228;2022-07-29T07:59:21;22.20;99.90
6581;DHT22;3324;50.796;7.228;2022-07-29T08:01:46;22.10;99.90
6581;DHT22;3324;50.796;7.228;2022-07-29T08:04:12;22.10;99.90
6581;DHT22;3324;50.796;7.228;2022-07-29T08:06:37;22.10;99.90
6581;DHT22;3324;50.796;7.228;2022-07-29T08:09:04;22.00;99.90
6581;DHT22;3324;50.796;7.228;2022-07-29T08:11:30;22.10;99.90
6581;DHT22;3324;50.796;7.228;2022-07-29T08:13:56;22.20;99.90
6581;DHT22;3324;50.796;7.228;2022-07-29T08:16:22;22.20;99.90
6581;DHT22;3324;50.796;7.228;2022-07-29T08:18:48;22.20;99.90
6581;DHT22;3324;50.796;7.228;2022-07-29T08:21:14;22.30;99.90
6581;DHT22;3324;50.796;7.228;2022-07-29T08:23:41;22.50;99.90
6581;DHT22;3324;50.796;7.228;2022-07-29T08:26:16;22.80;99.90
6581;DHT22;3324;50.796;7.228;2022-07-29T08:28:43;23.10;99.90
6581;DHT22;3324;50.796;7.228;2022-07-29T08:31:14;23.40;99.90
6581;DHT22;3324;50.796;7.228;2022-07-29T08:33:40;23.50;99.90
6581;DHT22;3324;50.796;7.228;2022-07-29T08:36:06;23.70;99.90
6581;DHT22;3324;50.796;7.228;2022-07-29T08:38:32;23.90;99.90
6581;DHT22;3324;50.796;7.228;2022-07-29T08:41:00;24.00;99.90
6581;DHT22;3324;50.796;7.228;2022-07-29T08:43:27;24.00;99.90
6581;DHT22;3324;50.796;7.228;2022-07-29T08:45:53;24.10;99.90
6581;DHT22;3324;50.796;7.228;2022-07-29T08:48:21;24.00;99.90
6581;DHT22;3324;50.796;7.228;2022-07-29T08:50:48;24.10;99.90
6581;DHT22;3324;50.796;7.228;2022-07-29T08:53:17;24.10;99.90
6581;DHT22;3324;50.796;7.228;2022-07-29T08:55:48;24.10;99.90
6581;DHT22;3324;50.796;7.228;2022-07-29T08:58:15;24.20;99.90
6581;DHT22;3324;50.796;7.228;2022-07-29T09:00:48;24.10;99.90
6581;DHT22;3324;50.796;7.228;2022-07-29T09:03:18;24.10;99.90
6581;DHT22;3324;50.796;7.228;2022-07-29T09:05:48;24.00;99.90
6581;DHT22;3324;50.796;7.228;2022-07-29T09:08:15;24.00;99.90
6581;DHT22;3324;50.796;7.228;2022-07-29T09:10:41;24.10;99.90
6581;DHT22;3324;50.796;7.228;2022-07-29T09:13:07;24.20;99.90
6581;DHT22;3324;50.796;7.228;2022-07-29T09:15:33;24.40;99.90
6581;DHT22;3324;50.796;7.228;2022-07-29T09:17:59;24.80;99.90
6581;DHT22;3324;50.796;7.228;2022-07-29T09:20:26;25.10;99.30
6581;DHT22;3324;50.796;7.228;2022-07-29T09:23:12;25.30;99.60
6581;DHT22;3324;50.796;7.228;2022-07-29T09:25:40;25.60;98.20
6581;DHT22;3324;50.796;7.228;2022-07-29T09:33:22;26.20;95.00
6581;DHT22;3324;50.796;7.228;2022-07-29T09:36:03;26.30;95.80
6581;DHT22;3324;50.796;7.228;2022-07-29T09:38:30;26.40;95.20
6581;DHT22;3324;50.796;7.228;2022-07-29T09:40:57;26.40;95.60
6581;DHT22;3324;50.796;7.228;2022-07-29T09:43:23;26.70;93.80
6581;DHT22;3324;50.796;7.228;2022-07-29T09:45:48;26.80;93.70
6581;DHT22;3324;50.796;7.228;2022-07-29T09:48:19;26.90;93.70
6581;DHT22;3324;50.796;7.228;2022-07-29T09:50:46;27.00;93.00
6581;DHT22;3324;50.796;7.228;2022-07-29T09:53:30;27.10;92.60
6581;DHT22;3324;50.796;7.228;2022-07-29T09:55:56;27.20;92.70
6581;DHT22;3324;50.796;7.228;2022-07-29T09:58:22;27.40;92.70
6581;DHT22;3324;50.796;7.228;2022-07-29T10:00:49;27.50;91.60
6581;DHT22;3324;50.796;7.228;2022-07-29T10:03:16;27.60;90.80
6581;DHT22;3324;50.796;7.228;2022-07-29T10:05:42;27.50;90.60
6581;DHT22;3324;50.796;7.228;2022-07-29T10:08:09;27.50;91.20
6581;DHT22;3324;50.796;7.228;2022-07-29T10:10:37;27.60;91.00
6581;DHT22;3324;50.796;7.228;2022-07-29T10:13:05;27.50;91.10
6581;DHT22;3324;50.796;7.228;2022-07-29T10:15:34;27.50;91.10
6581;DHT22;3324;50.796;7.228;2022-07-29T10:18:04;27.40;91.20
6581;DHT22;3324;50.796;7.228;2022-07-29T10:20:29;27.30;91.20
6581;DHT22;3324;50.796;7.228;2022-07-29T10:22:55;27.30;91.00
6581;DHT22;3324;50.796;7.228;2022-07-29T10:25:22;27.30;91.70
6581;DHT22;3324;50.796;7.228;2022-07-29T10:27:48;27.20;92.30
6581;DHT22;3324;50.796;7.228;2022-07-29T10:30:15;27.10;92.40
6581;DHT22;3324;50.796;7.228;2022-07-29T10:38:45;27.20;91.70
6581;DHT22;3324;50.796;7.228;2022-07-29T10:46:41;27.00;93.40
6581;DHT22;3324;50.796;7.228;2022-07-29T10:51:59;27.00;93.50
6581;DHT22;3324;50.796;7.228;2022-07-29T11:05:12;27.40;93.10
6581;DHT22;3324;50.796;7.228;2022-07-29T11:08:17;27.40;92.80
6581;DHT22;3324;50.796;7.228;2022-07-29T11:10:25;27.50;93.60
6581;DHT22;3324;50.796;7.228;2022-07-29T11:12:51;27.60;93.40
6581;DHT22;3324;50.796;7.228;2022-07-29T11:15:21;27.50;93.80
6581;DHT22;3324;50.796;7.228;2022-07-29T11:20:45;27.50;94.10
6581;DHT22;3324;50.796;7.228;2022-07-29T11:28:42;27.50;93.70
6581;DHT22;3324;50.796;7.228;2022-07-29T11:34:28;27.50;93.70
6581;DHT22;3324;50.796;7.228;2022-07-29T11:39:38;27.60;93.60
6581;DHT22;3324;50.796;7.228;2022-07-29T11:47:35;28.20;93.00
6581;DHT22;3324;50.796;7.228;2022-07-29T11:50:12;28.30;93.10
6581;DHT22;3324;50.796;7.228;2022-07-29T11:52:43;28.50;93.00
6581;DHT22;3324;50.796;7.228;2022-07-29T11:55:13;28.70;91.90
6581;DHT22;3324;50.796;7.228;2022-07-29T11:57:50;28.90;91.30
6581;DHT22;3324;50.796;7.228;2022-07-29T12:02:51;29.00;92.00
6581;DHT22;3324;50.796;7.228;2022-07-29T12:05:17;29.10;91.00
6581;DHT22;3324;50.796;7.228;2022-07-29T12:07:42;29.00;90.30
6581;DHT22;3324;50.796;7.228;2022-07-29T12:10:08;29.20;91.10
6581;DHT22;3324;50.796;7.228;2022-07-29T12:12:35;29.40;89.80
6581;DHT22;3324;50.796;7.228;2022-07-29T12:15:17;29.20;88.50
6581;DHT22;3324;50.796;7.228;2022-07-29T12:17:46;29.20;90.60
6581;DHT22;3324;50.796;7.228;2022-07-29T12:20:12;29.30;90.00
6581;DHT22;3324;50.796;7.228;2022-07-29T12:22:41;29.30;88.90
6581;DHT22;3324;50.796;7.228;2022-07-29T12:25:13;29.30;90.40
6581;DHT22;3324;50.796;7.228;2022-07-29T12:27:41;29.20;88.60
6581;DHT22;3324;50.796;7.228;2022-07-29T12:30:13;29.00;89.80
6581;DHT22;3324;50.796;7.228;2022-07-29T12:32:41;28.90;90.00
6581;DHT22;3324;50.796;7.228;2022-07-29T12:35:15;29.00;88.60
6581;DHT22;3324;50.796;7.228;2022-07-29T12:37:43;29.10;90.60
6581;DHT22;3324;50.796;7.228;2022-07-29T12:40:11;29.10;88.60
6581;DHT22;3324;50.796;7.228;2022-07-29T12:42:38;29.00;90.30
6581;DHT22;3324;50.796;7.228;2022-07-29T12:45:05;28.80;89.10
6581;DHT22;3324;50.796;7.228;2022-07-29T12:47:32;28.70;90.20
6581;DHT22;3324;50.796;7.228;2022-07-29T12:50:12;28.70;88.70
6581;DHT22;3324;50.796;7.228;2022-07-29T12:52:39;28.90;90.10
6581;DHT22;3324;50.796;7.228;2022-07-29T12:55:05;28.80;89.30
6581;DHT22;3324;50.796;7.228;2022-07-29T12:57:32;28.80;90.70
6581;DHT22;3324;50.796;7.228;2022-07-29T13:00:11;28.70;89.80
6581;DHT22;3324;50.796;7.228;2022-07-29T13:02:38;28.70;90.50
6581;DHT22;3324;50.796;7.228;2022-07-29T13:05:05;28.50;91.10
6581;DHT22;3324;50.796;7.228;2022-07-29T13:07:33;28.50;90.70
6581;DHT22;3324;50.796;7.228;2022-07-29T13:10:35;28.60;90.30
6581;DHT22;3324;50.796;7.228;2022-07-29T13:13:07;28.60;90.50
6581;DHT22;3324;50.796;7.228;2022-07-29T13:15:35;28.80;90.50
6581;DHT22;3324;50.796;7.228;2022-07-29T13:18:01;28.90;89.20
6581;DHT22;3324;50.796;7.228;2022-07-29T13:20:29;28.90;88.30
6581;DHT22;3324;50.796;7.228;2022-07-29T13:22:59;28.80;89.70
6581;DHT22;3324;50.796;7.228;2022-07-29T13:25:30;28.90;88.20
6581;DHT22;3324;50.796;7.228;2022-07-29T13:27:57;28.90;88.90
6581;DHT22;3324;50.796;7.228;2022-07-29T13:30:23;28.80;90.20
6581;DHT22;3324;50.796;7.228;2022-07-29T13:32:51;28.70;90.30
6581;DHT22;3324;50.796;7.228;2022-07-29T13:35:17;28.60;90.30
6581;DHT22;3324;50.796;7.228;2022-07-29T13:37:43;28.40;92.30
6581;DHT22;3324;50.796;7.228;2022-07-29T13:40:09;28.40;90.80
6581;DHT22;3324;50.796;7.228;2022-07-29T13:42:35;28.30;91.10
6581;DHT22;3324;50.796;7.228;2022-07-29T13:45:02;28.30;91.60
6581;DHT22;3324;50.796;7.228;2022-07-29T13:47:28;28.20;91.20
6581;DHT22;3324;50.796;7.228;2022-07-29T13:49:54;28.20;90.90
6581;DHT22;3324;50.796;7.228;2022-07-29T13:52:20;28.30;90.10
6581;DHT22;3324;50.796;7.228;2022-07-29T13:54:46;28.30;90.20
6581;DHT22;3324;50.796;7.228;2022-07-29T13:57:12;28.40;90.60
6581;DHT22;3324;50.796;7.228;2022-07-29T13:59:41;28.50;90.50
6581;DHT22;3324;50.796;7.228;2022-07-29T14:02:08;28.50;90.70
6581;DHT22;3324;50.796;7.228;2022-07-29T14:04:34;28.60;90.40
6581;DHT22;3324;50.796;7.228;2022-07-29T14:07:00;28.60;89.20
6581;DHT22;3324;50.796;7.228;2022-07-29T14:09:26;28.50;90.10
6581;DHT22;3324;50.796;7.228;2022-07-29T14:11:51;28.60;89.30
6581;DHT22;3324;50.796;7.228;2022-07-29T14:14:18;28.60;90.20
6581;DHT22;3324;50.796;7.228;2022-07-29T14:16:44;28.60;89.00
6581;DHT22;3324;50.796;7.228;2022-07-29T14:19:10;28.60;87.20
6581;DHT22;3324;50.796;7.228;2022-07-29T14:21:36;28.60;87.20
6581;DHT22;3324;50.796;7.228;2022-07-29T14:24:03;28.50;87.50
6581;DHT22;3324;50.796;7.228;2022-07-29T14:26:28;28.60;88.90
6581;DHT22;3324;50.796;7.228;2022-07-29T14:28:54;28.70;85.40
6581;DHT22;3324;50.796;7.228;2022-07-29T14:31:20;28.80;87.10
6581;DHT22;3324;50.796;7.228;2022-07-29T14:33:45;28.90;86.40
6581;DHT22;3324;50.796;7.228;2022-07-29T14:36:11;28.80;86.70
6581;DHT22;3324;50.796;7.228;2022-07-29T14:38:37;28.70;87.50
6581;DHT22;3324;50.796;7.228;2022-07-29T14:41:04;28.50;86.80
6581;DHT22;3324;50.796;7.228;2022-07-29T14:43:29;28.40;85.00
6581;DHT22;3324;50.796;7.228;2022-07-29T14:45:55;28.30;86.50
6581;DHT22;3324;50.796;7.228;2022-07-29T14:48:21;28.30;87.60
6581;DHT22;3324;50.796;7.228;2022-07-29T14:50:46;28.40;87.90
6581;DHT22;3324;50.796;7.228;2022-07-29T14:53:12;28.30;86.90
6581;DHT22;3324;50.796;7.228;2022-07-29T14:55:39;28.30;86.20
6581;DHT22;3324;50.796;7.228;2022-07-29T14:58:05;28.20;86.60
6581;DHT22;3324;50.796;7.228;2022-07-29T15:00:31;28.00;87.70
6581;DHT22;3324;50.796;7.228;2022-07-29T15:02:59;27.80;89.20
6581;DHT22;3324;50.796;7.228;2022-07-29T15:05:25;27.70;87.40
6581;DHT22;3324;50.796;7.228;2022-07-29T15:07:51;27.70;90.20
6581;DHT22;3324;50.796;7.228;2022-07-29T15:10:17;27.70;90.00
6581;DHT22;3324;50.796;7.228;2022-07-29T15:12:42;27.70;90.60
6581;DHT22;3324;50.796;7.228;2022-07-29T15:15:08;27.70;90.10
6581;DHT22;3324;50.796;7.228;2022-07-29T15:17:34;27.80;90.10
6581;DHT22;3324;50.796;7.228;2022-07-29T15:20:00;27.80;90.50
6581;DHT22;3324;50.796;7.228;2022-07-29T15:22:25;27.80;89.70
6581;DHT22;3324;50.796;7.228;2022-07-29T15:24:51;27.90;90.10
6581;DHT22;3324;50.796;7.228;2022-07-29T15:27:17;28.00;90.00
6581;DHT22;3324;50.796;7.228;2022-07-29T15:29:43;27.90;90.50
6581;DHT22;3324;50.796;7.228;2022-07-29T15:32:09;27.80;90.80
6581;DHT22;3324;50.796;7.228;2022-07-29T15:34:35;27.90;90.40
6581;DHT22;3324;50.796;7.228;2022-07-29T15:37:01;27.80;90.70
6581;DHT22;3324;50.796;7.228;2022-07-29T15:39:27;27.80;90.10
6581;DHT22;3324;50.796;7.228;2022-07-29T15:41:52;27.90;90.30
6581;DHT22;3324;50.796;7.228;2022-07-29T15:44:19;27.80;90.50
6581;DHT22;3324;50.796;7.228;2022-07-29T15:46:45;27.90;90.90
6581;DHT22;3324;50.796;7.228;2022-07-29T15:49:49;27.80;89.10
6581;DHT22;3324;50.796;7.228;2022-07-29T15:52:16;27.70;89.70
6581;DHT22;3324;50.796;7.228;2022-07-29T15:54:43;27.60;89.80
6581;DHT22;3324;50.796;7.228;2022-07-29T15:57:10;27.50;90.50
6581;DHT22;3324;50.796;7.228;2022-07-29T15:59:35;27.30;91.00
6581;DHT22;3324;50.796;7.228;2022-07-29T16:02:01;27.30;90.40
6581;DHT22;3324;50.796;7.228;2022-07-29T16:04:26;27.30;91.40
6581;DHT22;3324;50.796;7.228;2022-07-29T16:06:52;27.20;91.10
6581;DHT22;3324;50.796;7.228;2022-07-29T16:09:18;27.20;90.90
6581;DHT22;3324;50.796;7.228;2022-07-29T16:11:44;27.10;91.40
6581;DHT22;3324;50.796;7.228;2022-07-29T16:14:11;27.00;90.90
6581;DHT22;3324;50.796;7.228;2022-07-29T16:16:37;26.90;91.00
6581;DHT22;3324;50.796;7.228;2022-07-29T16:19:03;26.90;91.70
6581;DHT22;3324;50.796;7.228;2022-07-29T16:21:29;26.80;91.60
6581;DHT22;3324;50.796;7.228;2022-07-29T16:23:59;26.70;91.70
6581;DHT22;3324;50.796;7.228;2022-07-29T16:26:25;26.70;91.30
6581;DHT22;3324;50.796;7.228;2022-07-29T16:28:51;26.70;91.20
6581;DHT22;3324;50.796;7.228;2022-07-29T16:31:16;26.60;92.50
6581;DHT22;3324;50.796;7.228;2022-07-29T16:33:42;26.50;91.30
6581;DHT22;3324;50.796;7.228;2022-07-29T16:36:08;26.40;91.70
6581;DHT22;3324;50.796;7.228;2022-07-29T16:38:33;26.30;91.80
6581;DHT22;3324;50.796;7.228;2022-07-29T16:41:00;26.30;91.30
6581;DHT22;3324;50.796;7.228;2022-07-29T16:43:26;26.20;92.20
6581;DHT22;3324;50.796;7.228;2022-07-29T16:45:51;26.20;91.90
6581;DHT22;3324;50.796;7.228;2022-07-29T16:48:17;26.20;92.00
6581;DHT22;3324;50.796;7.228;2022-07-29T16:50:43;26.00;92.50
6581;DHT22;3324;50.796;7.228;2022-07-29T16:53:08;25.90;91.90
6581;DHT22;3324;50.796;7.228;2022-07-29T16:55:34;25.80;92.00
6581;DHT22;3324;50.796;7.228;2022-07-29T16:58:00;25.80;91.80
6581;DHT22;3324;50.796;7.228;2022-07-29T17:00:25;25.80;92.20
6581;DHT22;3324;50.796;7.228;2022-07-29T17:02:51;25.60;92.10
6581;DHT22;3324;50.796;7.228;2022-07-29T17:05:17;25.50;92.00
6581;DHT22;3324;50.796;7.228;2022-07-29T17:07:42;25.50;92.00
6581;DHT22;3324;50.796;7.228;2022-07-29T17:10:09;25.50;91.50